createdAt,value
2023-08-11T00:02:27.359Z,14.78
2023-08-11T00:07:30.434Z,14.63
2023-08-11T00:12:33.474Z,14.47
2023-08-11T00:17:36.727Z,14.40
2023-08-11T00:22:40.041Z,14.35
2023-08-11T00:27:43.065Z,14.28
2023-08-11T00:32:47.025Z,14.17
2023-08-11T00:37:51.202Z,14.06
2023-08-11T00:42:54.433Z,14.01
2023-08-11T00:47:57.942Z,14.13
2023-08-11T00:53:02.563Z,14.02
2023-08-11T00:58:07.182Z,13.93
2023-08-11T01:03:10.181Z,13.97
2023-08-11T01:08:50.203Z,14.16
2023-08-11T01:14:10.917Z,14.40
2023-08-11T01:19:29.753Z,14.40
2023-08-11T01:24:33.465Z,14.37
2023-08-11T01:29:36.475Z,14.22
2023-08-11T01:34:42.316Z,14.00
2023-08-11T01:39:45.442Z,13.72
2023-08-11T01:44:49.547Z,13.57
2023-08-11T01:49:52.840Z,13.57
2023-08-11T01:54:56.269Z,13.37
2023-08-11T02:00:01.466Z,13.36
2023-08-11T02:05:09.738Z,13.24
2023-08-11T02:10:13.792Z,13.08
2023-08-11T02:15:16.830Z,13.06
2023-08-11T02:20:19.877Z,12.89
2023-08-11T02:25:28.835Z,12.74
2023-08-11T02:30:33.032Z,12.65
2023-08-11T02:35:36.143Z,12.63
2023-08-11T02:40:39.137Z,12.59
2023-08-11T02:45:42.317Z,12.59
2023-08-11T02:50:45.465Z,12.71
2023-08-11T02:55:48.638Z,12.77
2023-08-11T03:00:51.750Z,12.80
2023-08-11T03:05:56.717Z,12.87
2023-08-11T03:10:59.666Z,12.85
2023-08-11T03:16:03.070Z,12.56
2023-08-11T03:21:18.837Z,12.35
2023-08-11T03:26:22.688Z,12.18
2023-08-11T03:31:25.858Z,12.13
2023-08-11T03:36:28.798Z,12.11
2023-08-11T03:41:32.320Z,12.04
2023-08-11T03:46:35.722Z,12.05
2023-08-11T03:51:38.817Z,12.17
2023-08-11T03:56:41.841Z,12.81
2023-08-11T04:01:44.717Z,13.68
2023-08-11T04:06:47.693Z,14.19
2023-08-11T04:11:50.697Z,14.56
2023-08-11T04:16:53.827Z,15.19
2023-08-11T04:21:56.812Z,15.88
2023-08-11T04:26:59.719Z,16.17
2023-08-11T04:32:05.973Z,16.48
2023-08-11T04:37:09.711Z,16.50
2023-08-11T04:42:13.931Z,16.57
2023-08-11T04:47:16.836Z,16.40
2023-08-11T04:52:19.817Z,16.20
2023-08-11T04:57:22.824Z,16.49
2023-08-11T05:02:25.837Z,16.73
2023-08-11T05:07:29.694Z,16.83
2023-08-11T05:12:33.637Z,17.32
2023-08-11T05:17:36.606Z,17.57
2023-08-11T05:22:40.236Z,18.29
2023-08-11T05:27:43.271Z,19.04
2023-08-11T05:32:46.298Z,19.47
2023-08-11T05:38:18.644Z,19.61
2023-08-11T05:43:29.741Z,19.60
2023-08-11T05:48:32.705Z,20.24
2023-08-11T05:53:35.723Z,20.57
2023-08-11T05:58:38.735Z,20.46
2023-08-11T06:03:41.727Z,21.01
2023-08-11T06:08:44.834Z,21.79
2023-08-11T06:13:47.886Z,22.14
2023-08-11T06:18:51.473Z,22.66
2023-08-11T06:23:54.668Z,22.59
2023-08-11T06:28:57.676Z,22.43
2023-08-11T06:34:00.645Z,22.27
2023-08-11T06:39:03.979Z,22.56
2023-08-11T06:44:07.761Z,23.06
2023-08-11T06:49:10.850Z,23.24
2023-08-11T06:54:14.209Z,23.05
2023-08-11T06:59:18.612Z,23.15
2023-08-11T07:04:21.929Z,23.58
2023-08-11T07:09:25.718Z,23.28
2023-08-11T07:14:28.748Z,22.70
2023-08-11T07:19:31.802Z,23.24
2023-08-11T07:24:34.843Z,22.89
2023-08-11T07:29:37.898Z,22.89
2023-08-11T07:34:42.006Z,23.43
2023-08-11T07:39:45.230Z,24.22
2023-08-11T07:44:48.315Z,25.22
2023-08-11T07:49:51.331Z,25.05
2023-08-11T07:54:54.834Z,23.11
2023-08-11T07:59:58.810Z,22.57
2023-08-11T08:05:12.216Z,23.00
2023-08-11T08:10:16.162Z,23.43
2023-08-11T08:15:20.297Z,23.49
2023-08-11T08:20:23.432Z,23.51
2023-08-11T08:25:26.541Z,23.74
2023-08-11T08:30:29.511Z,24.15
2023-08-11T08:35:32.800Z,24.56
2023-08-11T08:40:37.441Z,24.21
2023-08-11T08:45:46.241Z,23.42
2023-08-11T08:50:49.616Z,23.13
2023-08-11T08:55:53.910Z,22.06
2023-08-11T09:00:58.000Z,22.56
2023-08-11T09:06:01.209Z,23.07
2023-08-11T09:11:04.237Z,24.16
2023-08-11T09:16:07.657Z,24.63
2023-08-11T09:21:10.791Z,24.60
2023-08-11T09:26:13.763Z,24.38
2023-08-11T09:31:17.733Z,23.42
2023-08-11T09:36:21.642Z,23.25
2023-08-11T09:41:24.693Z,23.18
2023-08-11T09:46:29.352Z,23.38
2023-08-11T09:51:39.146Z,23.70
2023-08-11T09:56:44.836Z,24.25
2023-08-11T10:01:52.080Z,24.80
2023-08-11T10:07:02.025Z,24.58
2023-08-11T10:12:08.840Z,24.32
2023-08-11T10:17:14.964Z,24.86
2023-08-11T10:22:21.422Z,25.69
2023-08-11T10:27:28.074Z,25.44
2023-08-11T10:32:40.360Z,24.25
2023-08-11T10:37:44.013Z,25.09
2023-08-11T10:42:47.953Z,25.44
2023-08-11T10:48:03.395Z,25.48
2023-08-11T10:53:23.382Z,25.06
2023-08-11T10:58:34.175Z,24.68
2023-08-11T11:03:43.167Z,25.41
2023-08-11T11:08:49.996Z,26.15
2023-08-11T11:13:53.857Z,26.88
2023-08-11T11:18:59.694Z,26.83
2023-08-11T11:24:03.781Z,25.99
2023-08-11T11:29:14.075Z,25.27
2023-08-11T11:34:21.308Z,24.92
2023-08-11T11:39:26.656Z,25.22
2023-08-11T11:44:30.710Z,25.05
2023-08-11T11:49:37.062Z,24.57
2023-08-11T11:54:41.107Z,24.47
2023-08-11T11:59:49.878Z,24.34
2023-08-11T12:04:54.204Z,24.02
2023-08-11T12:10:02.289Z,24.06
2023-08-11T12:15:09.071Z,24.72
2023-08-11T12:20:13.688Z,25.65
2023-08-11T12:25:17.974Z,26.13
2023-08-11T12:30:21.404Z,26.42
2023-08-11T12:35:25.649Z,26.36
2023-08-11T12:40:32.243Z,25.99
2023-08-11T12:45:36.042Z,25.98
2023-08-11T12:50:48.909Z,26.52
2023-08-11T12:55:52.418Z,26.38
2023-08-11T13:00:55.528Z,26.17
2023-08-11T13:05:58.610Z,25.58
2023-08-11T13:11:01.632Z,25.73
2023-08-11T13:16:05.515Z,26.12
2023-08-11T13:21:10.668Z,25.69
2023-08-11T13:26:17.480Z,25.57
2023-08-11T13:31:20.661Z,25.56
2023-08-11T13:36:27.849Z,25.93
2023-08-11T13:41:31.407Z,26.05
2023-08-11T13:46:40.881Z,26.67
2023-08-11T13:51:53.277Z,26.98
2023-08-11T13:56:57.393Z,27.58
2023-08-11T14:02:02.706Z,27.63
2023-08-11T14:07:22.608Z,26.86
2023-08-11T14:12:34.722Z,25.65
2023-08-11T14:17:38.184Z,25.14
2023-08-11T14:22:41.428Z,25.50
2023-08-11T14:27:44.482Z,25.64
2023-08-11T14:32:54.377Z,25.79
2023-08-11T14:37:59.957Z,26.39
2023-08-11T14:43:03.137Z,27.09
2023-08-11T14:48:09.893Z,27.40
2023-08-11T14:53:13.811Z,26.90
2023-08-11T14:58:17.445Z,26.66
2023-08-11T15:03:20.708Z,26.73
2023-08-11T15:08:24.453Z,26.59
2023-08-11T15:13:27.529Z,26.45
2023-08-11T15:18:31.797Z,24.92
2023-08-11T15:23:36.633Z,24.15
2023-08-11T15:28:39.688Z,23.62
2023-08-11T15:33:43.209Z,23.36
2023-08-11T15:38:46.162Z,23.47
2023-08-11T15:43:50.534Z,23.42
2023-08-11T15:48:53.742Z,23.58
2023-08-11T15:53:56.739Z,23.67
2023-08-11T15:58:59.796Z,23.90
2023-08-11T16:04:04.394Z,24.17
2023-08-11T16:09:08.259Z,24.38
2023-08-11T16:14:13.424Z,24.66
2023-08-11T16:19:19.783Z,24.79
2023-08-11T16:24:28.375Z,24.51
2023-08-11T16:29:33.875Z,24.36
2023-08-11T16:34:37.385Z,24.08
2023-08-11T16:39:41.024Z,24.18
2023-08-11T16:44:44.359Z,24.28
2023-08-11T16:49:51.558Z,24.47
2023-08-11T16:54:54.921Z,24.48
2023-08-11T17:00:02.296Z,24.52
2023-08-11T17:05:08.384Z,24.51
2023-08-11T17:10:14.899Z,24.47
2023-08-11T17:15:23.130Z,24.33
2023-08-11T17:20:34.051Z,24.23
2023-08-11T17:25:37.918Z,24.25
2023-08-11T17:30:41.989Z,24.14
2023-08-11T17:35:46.427Z,23.89
2023-08-11T17:40:51.500Z,23.60
2023-08-11T17:45:54.615Z,23.35
2023-08-11T17:51:00.966Z,23.23
2023-08-11T17:56:07.720Z,23.10
2023-08-11T18:01:11.084Z,22.53
2023-08-11T18:06:14.292Z,22.09
2023-08-11T18:11:17.470Z,21.55
2023-08-11T18:16:23.808Z,20.75
2023-08-11T18:21:27.440Z,20.01
2023-08-11T18:26:36.476Z,19.32
2023-08-11T18:31:43.492Z,18.60
2023-08-11T18:36:48.766Z,18.16
2023-08-11T18:41:53.495Z,17.81
2023-08-11T18:47:04.737Z,17.41
2023-08-11T18:52:08.175Z,17.08
2023-08-11T18:57:14.442Z,16.78
2023-08-11T19:02:26.375Z,16.47
2023-08-11T19:07:50.287Z,16.14
2023-08-11T19:13:02.043Z,15.93
2023-08-11T19:18:06.583Z,15.76
2023-08-11T19:23:09.832Z,15.67
2023-08-11T19:28:13.522Z,15.52
2023-08-11T19:33:23.245Z,15.31
2023-08-11T19:38:27.283Z,15.09
2023-08-11T19:43:30.396Z,14.90
2023-08-11T19:48:39.044Z,14.88
2023-08-11T19:53:45.668Z,14.76
2023-08-11T19:58:50.684Z,14.61
2023-08-11T20:03:54.087Z,14.56
2023-08-11T20:08:58.176Z,14.48
2023-08-11T20:14:05.423Z,14.32
2023-08-11T20:19:14.304Z,14.21
2023-08-11T20:24:20.298Z,14.17
2023-08-11T20:29:25.331Z,14.06
2023-08-11T20:34:28.819Z,13.89
2023-08-11T20:39:31.931Z,13.91
2023-08-11T20:44:35.037Z,13.82
2023-08-11T20:49:38.143Z,13.60
2023-08-11T20:54:44.850Z,13.49
2023-08-11T20:59:47.808Z,13.45
2023-08-11T21:04:50.820Z,13.44
2023-08-11T21:09:53.726Z,13.61
2023-08-11T21:14:56.685Z,13.77
2023-08-11T21:19:59.613Z,13.74
2023-08-11T21:25:03.212Z,13.51
2023-08-11T21:30:07.516Z,13.31
2023-08-11T21:35:10.718Z,13.28
2023-08-11T21:40:14.069Z,13.29
2023-08-11T21:45:22.148Z,13.17
2023-08-11T21:50:27.436Z,13.05
2023-08-11T21:55:30.830Z,13.20
2023-08-11T22:00:37.168Z,13.29
2023-08-11T22:05:43.241Z,13.28
2023-08-11T22:10:46.440Z,13.30
2023-08-11T22:15:51.062Z,13.26
2023-08-11T22:20:54.057Z,13.14
2023-08-11T22:25:57.019Z,12.93
2023-08-11T22:31:00.094Z,12.65
2023-08-11T22:36:03.304Z,12.46
2023-08-11T22:41:06.273Z,12.45
2023-08-11T22:46:09.311Z,12.60
2023-08-11T22:51:12.303Z,12.78
2023-08-11T22:56:15.244Z,12.90
2023-08-11T23:01:18.143Z,12.85
2023-08-11T23:06:21.271Z,12.66
2023-08-11T23:11:24.170Z,12.53
2023-08-11T23:16:27.346Z,12.40
2023-08-11T23:21:30.749Z,12.22
2023-08-11T23:26:33.692Z,12.20
2023-08-11T23:31:36.647Z,12.16
2023-08-11T23:36:39.814Z,12.25
2023-08-11T23:41:42.804Z,12.40
2023-08-11T23:46:45.780Z,12.33
2023-08-11T23:51:48.699Z,12.30
2023-08-11T23:56:51.695Z,12.20
